createdAt,value
2023-04-19T00:00:43.551Z,95003.00
2023-04-19T00:01:43.618Z,95003.00
2023-04-19T00:02:43.738Z,95003.00
2023-04-19T00:03:43.792Z,95005.00
2023-04-19T00:04:43.775Z,95005.00
2023-04-19T00:05:43.541Z,95005.00
2023-04-19T00:06:43.553Z,95007.00
2023-04-19T00:07:43.532Z,95005.00
2023-04-19T00:08:43.530Z,94999.00
2023-04-19T00:09:43.517Z,95001.00
2023-04-19T00:10:43.535Z,94999.00
2023-04-19T00:11:43.515Z,95007.00
2023-04-19T00:12:43.519Z,94999.00
2023-04-19T00:13:43.483Z,94997.00
2023-04-19T00:14:43.475Z,94997.00
2023-04-19T00:15:43.474Z,94999.00
2023-04-19T00:16:43.471Z,94999.00
2023-04-19T00:17:43.487Z,94999.00
2023-04-19T00:18:43.454Z,94999.00
2023-04-19T00:19:43.470Z,94999.00
2023-04-19T00:20:43.419Z,94999.00
2023-04-19T00:21:43.418Z,95001.00
2023-04-19T00:22:43.423Z,95001.00
2023-04-19T00:23:43.402Z,94999.00
2023-04-19T00:24:43.424Z,94999.00
2023-04-19T00:25:43.394Z,94999.00
2023-04-19T00:26:43.383Z,95001.00
2023-04-19T00:27:43.381Z,94997.00
2023-04-19T00:28:43.369Z,94999.00
2023-04-19T00:29:43.362Z,94999.00
2023-04-19T00:30:43.522Z,94997.00
2023-04-19T00:31:43.351Z,94995.00
2023-04-19T00:32:43.418Z,94995.00
2023-04-19T00:33:43.336Z,94993.00
2023-04-19T00:34:43.352Z,94991.00
2023-04-19T00:35:43.334Z,94993.00
2023-04-19T00:36:43.308Z,94993.00
2023-04-19T00:37:43.325Z,94993.00
2023-04-19T00:38:43.280Z,94991.00
2023-04-19T00:39:43.355Z,94991.00
2023-04-19T00:40:43.332Z,94989.00
2023-04-19T00:41:43.287Z,94989.00
2023-04-19T00:42:43.274Z,94989.00
2023-04-19T00:43:43.270Z,94989.00
2023-04-19T00:44:43.286Z,94987.00
2023-04-19T00:45:43.350Z,94989.00
2023-04-19T00:46:43.314Z,94989.00
2023-04-19T00:47:43.252Z,94989.00
2023-04-19T00:48:43.273Z,94989.00
2023-04-19T00:49:43.258Z,94989.00
2023-04-19T00:50:43.209Z,94991.00
2023-04-19T00:51:43.196Z,94991.00
2023-04-19T00:52:43.197Z,94991.00
2023-04-19T00:53:43.211Z,94989.00
2023-04-19T00:54:43.213Z,94987.00
2023-04-19T00:55:43.179Z,94991.00
2023-04-19T00:56:43.151Z,94987.00
2023-04-19T00:57:43.163Z,94985.00
2023-04-19T00:58:43.172Z,94987.00
2023-04-19T00:59:43.170Z,94984.00
2023-04-19T01:00:43.140Z,94985.00
2023-04-19T01:01:43.247Z,94985.00
2023-04-19T01:02:43.246Z,94984.00
2023-04-19T01:03:43.286Z,94984.00
2023-04-19T01:04:43.100Z,94984.00
2023-04-19T01:05:43.120Z,94984.00
2023-04-19T01:06:43.115Z,94985.00
2023-04-19T01:07:43.097Z,94984.00
2023-04-19T01:08:43.098Z,94985.00
2023-04-19T01:09:43.145Z,94985.00
2023-04-19T01:10:43.060Z,94985.00
2023-04-19T01:11:43.702Z,94982.00
2023-04-19T01:12:43.037Z,94982.00
2023-04-19T01:13:43.058Z,94982.00
2023-04-19T01:14:43.043Z,94982.00
2023-04-19T01:15:43.059Z,94982.00
2023-04-19T01:16:43.059Z,94978.00
2023-04-19T01:17:43.117Z,94980.00
2023-04-19T01:18:42.998Z,94978.00
2023-04-19T01:19:43.026Z,94976.00
2023-04-19T01:20:43.036Z,94976.00
2023-04-19T01:21:42.985Z,94976.00
2023-04-19T01:22:42.979Z,94970.00
2023-04-19T01:23:42.987Z,94970.00
2023-04-19T01:24:43.005Z,94972.00
2023-04-19T01:25:43.024Z,94968.00
2023-04-19T01:26:43.051Z,94970.00
2023-04-19T01:27:43.034Z,94968.00
2023-04-19T01:28:43.225Z,94968.00
2023-04-19T01:29:43.051Z,94966.00
2023-04-19T01:30:43.056Z,94966.00
2023-04-19T01:31:43.201Z,94964.00
2023-04-19T01:32:43.130Z,94964.00
2023-04-19T01:33:43.112Z,94964.00
2023-04-19T01:34:43.148Z,94960.00
2023-04-19T01:35:43.168Z,94962.00
2023-04-19T01:36:43.175Z,94960.00
2023-04-19T01:37:43.196Z,94960.00
2023-04-19T01:38:43.154Z,94960.00
2023-04-19T01:39:43.194Z,94960.00
2023-04-19T01:40:43.194Z,94958.00
2023-04-19T01:41:43.204Z,94956.00
2023-04-19T01:42:43.207Z,94958.00
2023-04-19T01:43:43.246Z,94956.00
2023-04-19T01:44:43.262Z,94954.00
2023-04-19T01:45:43.265Z,94954.00
2023-04-19T01:46:43.306Z,94954.00
2023-04-19T01:47:43.311Z,94952.00
2023-04-19T01:48:43.302Z,94950.00
2023-04-19T01:49:43.330Z,94950.00
2023-04-19T01:50:43.335Z,94950.00
2023-04-19T01:51:43.340Z,94950.00
2023-04-19T01:52:43.355Z,94948.00
2023-04-19T01:53:43.390Z,94948.00
2023-04-19T01:54:43.404Z,94948.00
2023-04-19T01:55:43.399Z,94945.00
2023-04-19T01:56:43.426Z,94948.00
2023-04-19T01:57:43.456Z,94943.00
2023-04-19T01:58:43.447Z,94945.00
2023-04-19T01:59:43.516Z,94945.00
2023-04-19T02:00:43.496Z,94945.00
2023-04-19T02:01:43.548Z,94945.00
2023-04-19T02:02:43.636Z,94945.00
2023-04-19T02:03:43.730Z,94943.00
2023-04-19T02:04:43.560Z,94943.00
2023-04-19T02:05:43.573Z,94941.00
2023-04-19T02:06:43.597Z,94945.00
2023-04-19T02:07:43.594Z,94939.00
2023-04-19T02:08:43.638Z,94945.00
2023-04-19T02:09:43.660Z,94945.00
2023-04-19T02:10:43.657Z,94945.00
2023-04-19T02:11:43.697Z,94943.00
2023-04-19T02:12:43.693Z,94943.00
2023-04-19T02:13:43.697Z,94943.00
2023-04-19T02:14:43.744Z,94943.00
2023-04-19T02:15:43.739Z,94945.00
2023-04-19T02:16:43.763Z,94943.00
2023-04-19T02:17:43.821Z,94943.00
2023-04-19T02:18:43.799Z,94943.00
2023-04-19T02:19:43.823Z,94945.00
2023-04-19T02:20:43.837Z,94941.00
2023-04-19T02:21:43.845Z,94943.00
2023-04-19T02:22:43.901Z,94939.00
2023-04-19T02:23:43.875Z,94939.00
2023-04-19T02:24:43.905Z,94939.00
2023-04-19T02:25:43.910Z,94939.00
2023-04-19T02:26:43.949Z,94935.00
2023-04-19T02:27:43.950Z,94935.00
2023-04-19T02:28:43.989Z,94933.00
2023-04-19T02:29:43.989Z,94931.00
2023-04-19T02:30:43.999Z,94929.00
2023-04-19T02:31:44.052Z,94933.00
2023-04-19T02:32:44.082Z,94929.00
2023-04-19T02:33:44.064Z,94931.00
2023-04-19T02:34:44.081Z,94931.00
2023-04-19T02:35:44.100Z,94931.00
2023-04-19T02:36:44.102Z,94931.00
2023-04-19T02:37:44.139Z,94931.00
2023-04-19T02:38:44.144Z,94931.00
2023-04-19T02:39:44.192Z,94931.00
2023-04-19T02:40:44.188Z,94929.00
2023-04-19T02:41:44.205Z,94927.00
2023-04-19T02:42:44.219Z,94927.00
2023-04-19T02:43:44.266Z,94929.00
2023-04-19T02:44:44.256Z,94925.00
2023-04-19T02:45:44.351Z,94925.00
2023-04-19T02:46:44.296Z,94925.00
2023-04-19T02:47:44.362Z,94925.00
2023-04-19T02:48:44.329Z,94923.00
2023-04-19T02:49:44.358Z,94925.00
2023-04-19T02:50:44.398Z,94925.00
2023-04-19T02:51:44.402Z,94923.00
2023-04-19T02:52:44.411Z,94923.00
2023-04-19T02:53:44.442Z,94923.00
2023-04-19T02:54:44.447Z,94923.00
2023-04-19T02:55:44.468Z,94925.00
2023-04-19T02:56:44.501Z,94925.00
2023-04-19T02:57:44.507Z,94923.00
2023-04-19T02:58:44.542Z,94915.00
2023-04-19T02:59:44.546Z,94923.00
2023-04-19T03:00:44.561Z,94915.00
2023-04-19T03:01:44.695Z,94913.00
2023-04-19T03:02:44.705Z,94913.00
2023-04-19T03:03:44.761Z,94913.00
2023-04-19T03:04:44.648Z,94915.00
2023-04-19T03:05:44.654Z,94915.00
2023-04-19T03:06:44.726Z,94913.00
2023-04-19T03:07:44.828Z,94913.00
2023-04-19T03:08:44.758Z,94913.00
2023-04-19T03:09:44.790Z,94911.00
2023-04-19T03:10:44.805Z,94911.00
2023-04-19T03:11:44.813Z,94909.00
2023-04-19T03:12:44.834Z,94909.00
2023-04-19T03:13:44.878Z,94911.00
2023-04-19T03:14:44.910Z,94909.00
2023-04-19T03:15:45.014Z,94911.00
2023-04-19T03:16:44.970Z,94907.00
2023-04-19T03:17:45.063Z,94909.00
2023-04-19T03:18:46.695Z,94909.00
2023-04-19T03:19:45.009Z,94909.00
2023-04-19T03:20:44.973Z,94907.00
2023-04-19T03:21:44.958Z,94907.00
2023-04-19T03:22:44.977Z,94905.00
2023-04-19T03:23:44.953Z,94903.00
2023-04-19T03:24:44.939Z,94903.00
2023-04-19T03:25:44.921Z,94901.00
2023-04-19T03:26:45.702Z,94901.00
2023-04-19T03:27:44.920Z,94901.00
2023-04-19T03:28:44.918Z,94899.00
2023-04-19T03:29:45.813Z,94899.00
2023-04-19T03:30:44.883Z,94897.00
2023-04-19T03:31:45.126Z,94899.00
2023-04-19T03:32:44.907Z,94897.00
2023-04-19T03:33:45.235Z,94893.00
2023-04-19T03:34:44.894Z,94893.00
2023-04-19T03:35:44.892Z,94892.00
2023-04-19T03:36:44.910Z,94892.00
2023-04-19T03:37:44.930Z,94890.00
2023-04-19T03:38:45.023Z,94884.00
2023-04-19T03:39:44.995Z,94888.00
2023-04-19T03:40:45.035Z,94884.00
2023-04-19T03:41:45.031Z,94884.00
2023-04-19T03:42:45.069Z,94882.00
2023-04-19T03:43:45.289Z,94882.00
2023-04-19T03:44:45.122Z,94880.00
2023-04-19T03:45:45.147Z,94882.00
2023-04-19T03:46:45.242Z,94880.00
2023-04-19T03:47:45.309Z,94882.00
2023-04-19T03:48:45.195Z,94882.00
2023-04-19T03:49:45.231Z,94882.00
2023-04-19T03:50:45.247Z,94880.00
2023-04-19T03:51:45.297Z,94880.00
2023-04-19T03:52:45.295Z,94880.00
2023-04-19T03:53:45.337Z,94880.00
2023-04-19T03:54:45.350Z,94880.00
2023-04-19T03:55:45.413Z,94880.00
2023-04-19T03:56:45.405Z,94880.00
2023-04-19T03:57:45.415Z,94880.00
2023-04-19T03:58:45.458Z,94878.00
2023-04-19T03:59:45.613Z,94880.00
2023-04-19T04:00:45.502Z,94882.00
2023-04-19T04:01:45.542Z,94878.00
2023-04-19T04:02:45.789Z,94880.00
2023-04-19T04:03:45.891Z,94880.00
2023-04-19T04:04:45.658Z,94884.00
2023-04-19T04:05:45.604Z,94884.00
2023-04-19T04:06:45.627Z,94882.00
2023-04-19T04:07:45.682Z,94884.00
2023-04-19T04:08:45.769Z,94884.00
2023-04-19T04:09:45.731Z,94884.00
2023-04-19T04:10:45.727Z,94886.00
2023-04-19T04:11:45.752Z,94886.00
2023-04-19T04:12:45.770Z,94888.00
2023-04-19T04:13:45.794Z,94886.00
2023-04-19T04:14:45.858Z,94886.00
2023-04-19T04:15:45.845Z,94886.00
2023-04-19T04:16:45.895Z,94888.00
2023-04-19T04:17:45.962Z,94888.00
2023-04-19T04:18:45.916Z,94890.00
2023-04-19T04:19:45.948Z,94890.00
2023-04-19T04:20:46.039Z,94890.00
2023-04-19T04:21:46.025Z,94890.00
2023-04-19T04:22:46.051Z,94890.00
2023-04-19T04:23:46.053Z,94892.00
2023-04-19T04:24:46.052Z,94890.00
2023-04-19T04:25:46.089Z,94890.00
2023-04-19T04:26:46.141Z,94890.00
2023-04-19T04:27:46.153Z,94892.00
2023-04-19T04:28:46.177Z,94892.00
2023-04-19T04:29:46.197Z,94893.00
2023-04-19T04:30:46.220Z,94895.00
2023-04-19T04:31:46.269Z,94893.00
2023-04-19T04:32:46.328Z,94895.00
2023-04-19T04:33:46.314Z,94897.00
2023-04-19T04:34:46.323Z,94895.00
2023-04-19T04:35:46.355Z,94892.00
2023-04-19T04:36:46.387Z,94895.00
2023-04-19T04:37:46.427Z,94893.00
2023-04-19T04:38:46.429Z,94893.00
2023-04-19T04:39:46.521Z,94893.00
2023-04-19T04:40:46.606Z,94893.00
2023-04-19T04:41:46.526Z,94892.00
2023-04-19T04:42:46.564Z,94892.00
2023-04-19T04:43:46.612Z,94892.00
2023-04-19T04:44:46.652Z,94890.00
2023-04-19T04:45:46.669Z,94892.00
2023-04-19T04:46:46.681Z,94890.00
2023-04-19T04:47:46.737Z,94890.00
2023-04-19T04:48:46.755Z,94888.00
2023-04-19T04:49:46.803Z,94890.00
2023-04-19T04:50:46.803Z,94890.00
2023-04-19T04:51:46.843Z,94888.00
2023-04-19T04:52:46.892Z,94888.00
2023-04-19T04:53:46.904Z,94888.00
2023-04-19T04:54:46.931Z,94886.00
2023-04-19T04:55:46.943Z,94886.00
2023-04-19T04:56:47.017Z,94886.00
2023-04-19T04:57:47.032Z,94888.00
2023-04-19T04:58:47.067Z,94886.00
2023-04-19T04:59:47.095Z,94886.00
2023-04-19T05:00:47.273Z,94886.00
2023-04-19T05:01:47.209Z,94886.00
2023-04-19T05:02:47.298Z,94886.00
2023-04-19T05:03:47.229Z,94886.00
2023-04-19T05:04:47.342Z,94884.00
2023-04-19T05:05:47.254Z,94884.00
2023-04-19T05:06:47.264Z,94884.00
2023-04-19T05:07:47.326Z,94884.00
2023-04-19T05:08:47.315Z,94884.00
2023-04-19T05:09:47.384Z,94882.00
2023-04-19T05:10:47.379Z,94880.00
2023-04-19T05:11:47.381Z,94882.00
2023-04-19T05:12:47.503Z,94882.00
2023-04-19T05:13:47.442Z,94880.00
2023-04-19T05:14:47.459Z,94882.00
2023-04-19T05:15:47.468Z,94878.00
2023-04-19T05:16:47.514Z,94876.00
2023-04-19T05:17:47.572Z,94878.00
2023-04-19T05:18:47.532Z,94878.00
2023-04-19T05:19:47.558Z,94878.00
2023-04-19T05:20:47.616Z,94876.00
2023-04-19T05:21:47.600Z,94874.00
2023-04-19T05:22:47.642Z,94876.00
2023-04-19T05:23:47.669Z,94878.00
2023-04-19T05:24:47.674Z,94874.00
2023-04-19T05:25:47.688Z,94874.00
2023-04-19T05:26:47.692Z,94876.00
2023-04-19T05:27:47.742Z,94876.00
2023-04-19T05:28:47.748Z,94878.00
2023-04-19T05:29:47.739Z,94876.00
2023-04-19T05:30:47.748Z,94878.00
2023-04-19T05:31:47.858Z,94876.00
2023-04-19T05:32:47.881Z,94876.00
2023-04-19T05:33:47.840Z,94872.00
2023-04-19T05:34:47.787Z,94874.00
2023-04-19T05:35:47.887Z,94874.00
2023-04-19T05:36:47.866Z,94872.00
2023-04-19T05:37:47.791Z,94874.00
2023-04-19T05:38:47.843Z,94870.00
2023-04-19T05:39:47.839Z,94872.00
2023-04-19T05:40:47.919Z,94872.00
2023-04-19T05:41:47.961Z,94864.00
2023-04-19T05:42:48.817Z,94872.00
2023-04-19T05:43:48.298Z,94868.00
2023-04-19T05:44:48.178Z,94866.00
2023-04-19T05:45:48.188Z,94870.00
2023-04-19T05:46:48.232Z,94868.00
2023-04-19T05:47:48.382Z,94866.00
2023-04-19T05:48:48.345Z,94864.00
2023-04-19T05:49:48.498Z,94866.00
2023-04-19T05:50:48.419Z,94868.00
2023-04-19T05:51:48.644Z,94866.00
2023-04-19T05:52:48.562Z,94866.00
2023-04-19T05:53:48.804Z,94868.00
2023-04-19T05:54:48.811Z,94864.00
2023-04-19T05:55:49.300Z,94864.00
2023-04-19T05:56:48.594Z,94864.00
2023-04-19T05:57:48.622Z,94868.00
2023-04-19T05:58:48.791Z,94868.00
2023-04-19T05:59:49.328Z,94874.00
2023-04-19T06:00:48.653Z,94870.00
2023-04-19T06:01:48.688Z,94876.00
2023-04-19T06:02:48.783Z,94874.00
2023-04-19T06:03:48.825Z,94874.00
2023-04-19T06:04:48.765Z,94872.00
2023-04-19T06:05:48.704Z,94872.00
2023-04-19T06:06:48.631Z,94872.00
2023-04-19T06:07:55.188Z,94872.00
2023-04-19T06:08:49.629Z,94872.00
2023-04-19T06:09:48.690Z,94874.00
2023-04-19T06:10:54.055Z,94868.00
2023-04-19T06:11:51.251Z,94870.00
2023-04-19T06:12:48.596Z,94872.00
2023-04-19T06:13:48.578Z,94870.00
2023-04-19T06:14:48.575Z,94872.00
2023-04-19T06:15:48.857Z,94870.00
2023-04-19T06:16:48.620Z,94872.00
2023-04-19T06:17:48.613Z,94872.00
2023-04-19T06:18:48.585Z,94870.00
2023-04-19T06:19:48.553Z,94868.00
2023-04-19T06:20:48.538Z,94870.00
2023-04-19T06:21:48.523Z,94876.00
2023-04-19T06:22:48.536Z,94874.00
2023-04-19T06:23:48.536Z,94876.00
2023-04-19T06:24:48.529Z,94872.00
2023-04-19T06:25:48.535Z,94874.00
2023-04-19T06:26:48.490Z,94872.00
2023-04-19T06:27:48.495Z,94874.00
2023-04-19T06:28:48.482Z,94876.00
2023-04-19T06:29:50.516Z,94876.00
2023-04-19T06:30:48.460Z,94874.00
2023-04-19T06:31:48.552Z,94874.00
2023-04-19T06:32:48.479Z,94870.00
2023-04-19T06:33:48.444Z,94874.00
2023-04-19T06:34:48.800Z,94876.00
2023-04-19T06:35:48.423Z,94874.00
2023-04-19T06:36:48.429Z,94868.00
2023-04-19T06:37:49.431Z,94874.00
2023-04-19T06:38:48.442Z,94872.00
2023-04-19T06:39:48.423Z,94870.00
2023-04-19T06:40:48.415Z,94870.00
2023-04-19T06:41:48.439Z,94870.00
2023-04-19T06:42:48.420Z,94868.00
2023-04-19T06:43:48.487Z,94868.00
2023-04-19T06:44:48.489Z,94866.00
2023-04-19T06:45:48.573Z,94868.00
2023-04-19T06:46:48.595Z,94868.00
2023-04-19T06:47:48.645Z,94864.00
2023-04-19T06:48:48.667Z,94864.00
2023-04-19T06:49:48.766Z,94864.00
2023-04-19T06:50:48.726Z,94868.00
2023-04-19T06:51:48.742Z,94868.00
2023-04-19T06:52:48.705Z,94868.00
2023-04-19T06:53:48.704Z,94868.00
2023-04-19T06:54:48.728Z,94866.00
2023-04-19T06:55:48.781Z,94866.00
2023-04-19T06:56:48.736Z,94864.00
2023-04-19T06:57:48.779Z,94864.00
2023-04-19T06:58:48.769Z,94868.00
2023-04-19T06:59:48.791Z,94864.00
2023-04-19T07:00:48.785Z,94864.00
2023-04-19T07:01:49.021Z,94866.00
2023-04-19T07:02:48.997Z,94866.00
2023-04-19T07:03:49.198Z,94864.00
2023-04-19T07:04:49.083Z,94862.00
2023-04-19T07:05:48.923Z,94862.00
2023-04-19T07:06:48.968Z,94862.00
2023-04-19T07:07:49.036Z,94864.00
2023-04-19T07:08:50.067Z,94860.00
2023-04-19T07:09:49.222Z,94864.00
2023-04-19T07:10:49.215Z,94864.00
2023-04-19T07:11:49.253Z,94862.00
2023-04-19T07:12:49.337Z,94866.00
2023-04-19T07:13:49.351Z,94866.00
2023-04-19T07:14:49.410Z,94868.00
2023-04-19T07:15:49.564Z,94866.00
2023-04-19T07:16:50.872Z,94862.00
2023-04-19T07:17:49.578Z,94864.00
2023-04-19T07:18:49.652Z,94860.00
2023-04-19T07:19:50.283Z,94860.00
2023-04-19T07:20:49.844Z,94858.00
2023-04-19T07:21:49.870Z,94858.00
2023-04-19T07:22:49.939Z,94856.00
2023-04-19T07:23:49.912Z,94860.00
2023-04-19T07:24:50.006Z,94858.00
2023-04-19T07:25:50.020Z,94856.00
2023-04-19T07:26:50.805Z,94856.00
2023-04-19T07:27:50.032Z,94851.00
2023-04-19T07:28:49.991Z,94851.00
2023-04-19T07:29:50.368Z,94848.00
2023-04-19T07:30:50.090Z,94853.00
2023-04-19T07:31:50.070Z,94851.00
2023-04-19T07:32:50.127Z,94851.00
2023-04-19T07:33:50.045Z,94853.00
2023-04-19T07:34:50.140Z,94854.00
2023-04-19T07:35:50.315Z,94853.00
2023-04-19T07:36:50.078Z,94853.00
2023-04-19T07:37:50.167Z,94848.00
2023-04-19T07:38:50.212Z,94851.00
2023-04-19T07:39:50.319Z,94851.00
2023-04-19T07:40:50.863Z,94848.00
2023-04-19T07:41:50.375Z,94846.00
2023-04-19T07:42:50.441Z,94846.00
2023-04-19T07:43:50.531Z,94841.00
2023-04-19T07:44:50.537Z,94841.00
2023-04-19T07:45:50.860Z,94841.00
2023-04-19T07:46:50.762Z,94843.00
2023-04-19T07:47:50.866Z,94845.00
2023-04-19T07:48:50.779Z,94843.00
2023-04-19T07:49:50.826Z,94843.00
2023-04-19T07:50:51.303Z,94845.00
2023-04-19T07:51:50.892Z,94843.00
2023-04-19T07:52:50.903Z,94841.00
2023-04-19T07:53:50.992Z,94839.00
2023-04-19T07:54:50.959Z,94843.00
2023-04-19T07:55:50.936Z,94841.00
2023-04-19T07:56:50.926Z,94841.00
2023-04-19T07:57:51.792Z,94839.00
2023-04-19T07:59:04.263Z,94839.00
2023-04-19T07:59:51.965Z,94837.00
2023-04-19T08:00:50.995Z,94837.00
2023-04-19T08:01:51.017Z,94837.00
2023-04-19T08:02:51.166Z,94841.00
2023-04-19T08:03:51.203Z,94839.00
2023-04-19T08:04:51.161Z,94839.00
2023-04-19T08:05:51.007Z,94839.00
2023-04-19T08:06:50.906Z,94837.00
2023-04-19T08:07:51.785Z,94835.00
2023-04-19T08:08:50.963Z,94835.00
2023-04-19T08:09:51.116Z,94835.00
2023-04-19T08:10:51.076Z,94833.00
2023-04-19T08:11:51.097Z,94833.00
2023-04-19T08:14:04.716Z,94835.00
2023-04-19T08:15:02.612Z,94835.00
2023-04-19T08:17:14.492Z,94833.00
2023-04-19T08:17:52.132Z,94833.00
2023-04-19T08:18:51.109Z,94833.00
2023-04-19T08:19:51.320Z,94831.00
2023-04-19T08:20:51.319Z,94829.00
2023-04-19T08:21:51.115Z,94829.00
2023-04-19T08:22:51.090Z,94829.00
2023-04-19T08:23:53.509Z,94827.00
2023-04-19T08:24:51.098Z,94823.00
2023-04-19T08:25:51.066Z,94825.00
2023-04-19T08:26:51.057Z,94821.00
2023-04-19T08:27:51.063Z,94821.00
2023-04-19T08:28:51.030Z,94819.00
2023-04-19T08:29:51.072Z,94815.00
2023-04-19T08:30:51.345Z,94813.00
2023-04-19T08:31:51.095Z,94813.00
2023-04-19T08:32:51.089Z,94815.00
2023-04-19T08:33:51.018Z,94811.00
2023-04-19T08:34:51.138Z,94809.00
2023-04-19T08:35:50.989Z,94811.00
2023-04-19T08:37:00.070Z,94811.00
2023-04-19T08:37:52.079Z,94809.00
2023-04-19T08:39:02.021Z,94809.00
2023-04-19T08:39:52.351Z,94809.00
2023-04-19T08:40:51.163Z,94811.00
2023-04-19T08:42:02.965Z,94811.00
2023-04-19T08:42:52.832Z,94809.00
2023-04-19T08:43:50.931Z,94807.00
2023-04-19T08:45:51.397Z,94807.00
2023-04-19T08:46:50.983Z,94809.00
2023-04-19T08:47:59.664Z,94807.00
2023-04-19T08:48:51.951Z,94807.00
2023-04-19T08:50:00.418Z,94807.00
2023-04-19T08:51:03.444Z,94806.00
2023-04-19T08:51:51.919Z,94806.00
2023-04-19T08:52:56.147Z,94806.00
2023-04-19T08:53:51.880Z,94804.00
2023-04-19T08:54:51.336Z,94802.00
2023-04-19T08:56:08.761Z,94804.00
2023-04-19T08:56:51.839Z,94804.00
2023-04-19T08:57:50.817Z,94800.00
2023-04-19T08:59:01.024Z,94800.00
2023-04-19T08:59:51.840Z,94798.00
2023-04-19T09:00:50.885Z,94796.00
2023-04-19T09:01:50.840Z,94796.00
2023-04-19T09:02:51.036Z,94796.00
2023-04-19T09:04:04.773Z,94790.00
2023-04-19T09:04:52.008Z,94790.00
2023-04-19T09:05:51.573Z,94788.00
2023-04-19T09:06:50.757Z,94786.00
2023-04-19T09:07:50.760Z,94784.00
2023-04-19T09:08:50.754Z,94786.00
2023-04-19T09:10:01.963Z,94782.00
2023-04-19T09:10:51.734Z,94780.00
2023-04-19T09:11:50.741Z,94782.00
2023-04-19T09:12:50.727Z,94780.00
2023-04-19T09:13:51.796Z,94776.00
2023-04-19T09:15:01.209Z,94774.00
2023-04-19T09:15:51.716Z,94774.00
2023-04-19T09:16:50.695Z,94774.00
2023-04-19T09:17:50.718Z,94774.00
2023-04-19T09:18:59.972Z,94770.00
2023-04-19T09:19:51.821Z,94770.00
2023-04-19T09:20:50.693Z,94770.00
2023-04-19T09:21:50.647Z,94766.00
2023-04-19T09:22:50.672Z,94764.00
2023-04-19T09:23:50.637Z,94762.00
2023-04-19T09:26:50.625Z,94759.00
2023-04-19T09:27:50.608Z,94757.00
2023-04-19T09:28:50.674Z,94755.00
2023-04-19T09:29:50.595Z,94753.00
2023-04-19T09:31:03.128Z,94749.00
2023-04-19T09:31:52.371Z,94751.00
2023-04-19T09:32:50.727Z,94749.00
2023-04-19T09:33:50.575Z,94745.00
2023-04-19T09:34:51.356Z,94743.00
2023-04-19T09:35:51.343Z,94741.00
2023-04-19T09:37:00.510Z,94743.00
2023-04-19T09:38:51.608Z,94739.00
2023-04-19T09:39:50.616Z,94737.00
2023-04-19T09:40:50.656Z,94737.00
2023-04-19T09:41:50.569Z,94733.00
2023-04-19T09:45:50.910Z,94725.00
2023-04-19T09:46:53.089Z,94723.00
2023-04-19T09:47:50.561Z,94725.00
2023-04-19T09:48:50.513Z,94725.00
2023-04-19T09:49:50.815Z,94721.00
2023-04-19T09:50:57.379Z,94717.00
2023-04-19T09:51:51.845Z,94717.00
2023-04-19T09:52:50.501Z,94715.00
2023-04-19T09:53:50.453Z,94713.00
2023-04-19T09:54:50.490Z,94715.00
2023-04-19T09:56:00.229Z,94713.00
2023-04-19T09:56:51.904Z,94712.00
2023-04-19T09:57:50.467Z,94712.00
2023-04-19T09:58:54.607Z,94708.00
2023-04-19T09:59:51.435Z,94710.00
2023-04-19T10:00:55.032Z,94708.00
2023-04-19T10:01:51.879Z,94708.00
2023-04-19T10:02:52.106Z,94704.00
2023-04-19T10:03:51.523Z,94706.00
2023-04-19T10:05:51.927Z,94704.00
2023-04-19T10:07:13.987Z,94702.00
2023-04-19T10:07:51.411Z,94704.00
2023-04-19T10:08:50.379Z,94704.00
2023-04-19T10:11:52.135Z,94700.00
2023-04-19T10:13:07.473Z,94698.00
2023-04-19T10:13:51.341Z,94696.00
2023-04-19T10:14:50.310Z,94694.00
2023-04-19T10:15:54.049Z,94692.00
2023-04-19T10:16:51.350Z,94696.00
2023-04-19T10:17:50.374Z,94692.00
2023-04-19T10:18:50.691Z,94690.00
2023-04-19T10:19:50.279Z,94690.00
2023-04-19T10:20:50.263Z,94690.00
2023-04-19T10:21:50.264Z,94686.00
2023-04-19T10:22:50.275Z,94688.00
2023-04-19T10:23:50.286Z,94686.00
2023-04-19T10:24:50.238Z,94686.00
2023-04-19T10:25:50.244Z,94684.00
2023-04-19T10:26:50.250Z,94684.00
2023-04-19T10:27:50.257Z,94684.00
2023-04-19T10:28:50.235Z,94680.00
2023-04-19T10:29:50.211Z,94680.00
2023-04-19T10:30:50.205Z,94678.00
2023-04-19T10:31:50.412Z,94676.00
2023-04-19T10:32:50.314Z,94676.00
2023-04-19T10:33:50.291Z,94674.00
2023-04-19T10:34:50.333Z,94672.00
2023-04-19T10:35:50.327Z,94670.00
2023-04-19T10:36:50.877Z,94670.00
2023-04-19T10:37:50.399Z,94670.00
2023-04-19T10:38:50.398Z,94668.00
2023-04-19T10:39:50.412Z,94668.00
2023-04-19T10:40:50.896Z,94657.00
2023-04-19T10:41:50.499Z,94659.00
2023-04-19T10:42:50.508Z,94659.00
2023-04-19T10:43:50.541Z,94657.00
2023-04-19T10:44:50.577Z,94655.00
2023-04-19T10:45:50.932Z,94651.00
2023-04-19T10:46:50.892Z,94647.00
2023-04-19T10:47:50.729Z,94649.00
2023-04-19T10:48:50.748Z,94647.00
2023-04-19T10:49:50.697Z,94643.00
2023-04-19T10:50:50.762Z,94641.00
2023-04-19T10:51:50.778Z,94645.00
2023-04-19T10:52:50.801Z,94637.00
2023-04-19T10:53:50.900Z,94639.00
2023-04-19T10:54:50.861Z,94633.00
2023-04-19T10:55:50.907Z,94633.00
2023-04-19T10:56:51.033Z,94633.00
2023-04-19T10:57:51.889Z,94631.00
2023-04-19T10:58:50.985Z,94627.00
2023-04-19T10:59:51.829Z,94621.00
2023-04-19T11:00:51.064Z,94623.00
2023-04-19T11:01:51.222Z,94621.00
2023-04-19T11:02:51.267Z,94620.00
2023-04-19T11:03:51.303Z,94620.00
2023-04-19T11:04:51.197Z,94618.00
2023-04-19T11:05:51.341Z,94618.00
2023-04-19T11:06:51.376Z,94614.00
2023-04-19T11:07:51.344Z,94612.00
2023-04-19T11:08:51.326Z,94608.00
2023-04-19T11:09:51.452Z,94604.00
2023-04-19T11:10:53.278Z,94604.00
2023-04-19T11:11:51.967Z,94604.00
2023-04-19T11:12:51.471Z,94600.00
2023-04-19T11:13:51.500Z,94596.00
2023-04-19T11:14:51.571Z,94594.00
2023-04-19T11:15:51.644Z,94594.00
2023-04-19T11:16:51.712Z,94592.00
2023-04-19T11:18:00.949Z,94588.00
2023-04-19T11:18:52.666Z,94588.00
2023-04-19T11:19:51.672Z,94584.00
2023-04-19T11:20:51.644Z,94586.00
2023-04-19T11:21:51.926Z,94586.00
2023-04-19T11:22:51.648Z,94582.00
2023-04-19T11:23:51.616Z,94580.00
2023-04-19T11:24:51.620Z,94582.00
2023-04-19T11:25:51.628Z,94578.00
2023-04-19T11:26:54.026Z,94574.00
2023-04-19T11:27:51.588Z,94574.00
2023-04-19T11:28:51.571Z,94574.00
2023-04-19T11:29:51.576Z,94573.00
2023-04-19T11:30:51.552Z,94569.00
2023-04-19T11:31:51.639Z,94567.00
2023-04-19T11:32:51.619Z,94563.00
2023-04-19T11:33:51.561Z,94563.00
2023-04-19T11:34:51.537Z,94561.00
2023-04-19T11:35:51.542Z,94559.00
2023-04-19T11:36:51.556Z,94557.00
2023-04-19T11:37:51.517Z,94557.00
2023-04-19T11:38:51.497Z,94553.00
2023-04-19T11:39:51.511Z,94551.00
2023-04-19T11:40:51.478Z,94549.00
2023-04-19T11:41:51.513Z,94551.00
2023-04-19T11:42:51.475Z,94547.00
2023-04-19T11:43:51.494Z,94547.00
2023-04-19T11:44:51.459Z,94545.00
2023-04-19T11:45:51.478Z,94545.00
2023-04-19T11:46:51.509Z,94543.00
2023-04-19T11:47:51.524Z,94541.00
2023-04-19T11:48:51.493Z,94539.00
2023-04-19T11:49:51.471Z,94539.00
2023-04-19T11:50:51.421Z,94535.00
2023-04-19T11:51:51.431Z,94531.00
2023-04-19T11:52:51.410Z,94531.00
2023-04-19T11:53:51.439Z,94529.00
2023-04-19T11:54:51.388Z,94527.00
2023-04-19T11:55:51.502Z,94526.00
2023-04-19T11:56:51.380Z,94526.00